ACA8369 KLGA-CYUL
Flight info
| Callsign | ACA8369 |
|---|---|
| Flight time | N/A |
| Altitude | 37000 |
| Route | GREKI DCT JUDDS DCT CAM DCT JASDU DCT PBERG CARTR5 |
| Aircraft | A320/M-SDE3FGHIRWY/LB1 |
Departure
| Time | 2026-05-03 21:14 |
|---|---|
| Airport | LaGuardia Airport (KLGA) |
Arrival
| Time | N/A |
|---|---|
| Airport | Montreal / Pierre Elliott Trudeau International Airport (CYUL) |
| Time | Latitude | Longitude | Altitude | Speed | Heading |
|---|---|---|---|---|---|
| 2026-05-03 20:51 | 40.77390 | -73.86822 | 20 ft | 0 kts | 242° |
| 2026-05-03 21:03 | 40.77394 | -73.86813 | 21 ft | 3 kts | 242° |
| 2026-05-03 21:03 | 40.77403 | -73.86790 | 22 ft | 3 kts | 242° |
| 2026-05-03 21:03 | 40.77412 | -73.86768 | 19 ft | 3 kts | 252° |
| 2026-05-03 21:03 | 40.77416 | -73.86743 | 21 ft | 3 kts | 277° |
| 2026-05-03 21:04 | 40.77411 | -73.86719 | 19 ft | 2 kts | 300° |
| 2026-05-03 21:04 | 40.77409 | -73.86714 | 19 ft | 0 kts | 302° |
| 2026-05-03 21:06 | 40.77413 | -73.86723 | 19 ft | 2 kts | 302° |
| 2026-05-03 21:07 | 40.77432 | -73.86748 | 19 ft | 6 kts | 327° |
| 2026-05-03 21:07 | 40.77469 | -73.86756 | 17 ft | 11 kts | 2° |
| 2026-05-03 21:07 | 40.77538 | -73.86786 | 13 ft | 8 kts | 312° |
| 2026-05-03 21:07 | 40.77585 | -73.86813 | 13 ft | 10 kts | 18° |
| 2026-05-03 21:08 | 40.77638 | -73.86851 | 14 ft | 10 kts | 303° |
| 2026-05-03 21:08 | 40.77680 | -73.86937 | 14 ft | 12 kts | 303° |
| 2026-05-03 21:08 | 40.77725 | -73.87031 | 13 ft | 12 kts | 301° |
| 2026-05-03 21:08 | 40.77768 | -73.87123 | 14 ft | 11 kts | 302° |
| 2026-05-03 21:09 | 40.77810 | -73.87212 | 13 ft | 12 kts | 299° |
| 2026-05-03 21:09 | 40.77833 | -73.87322 | 14 ft | 13 kts | 275° |
| 2026-05-03 21:09 | 40.77820 | -73.87447 | 15 ft | 14 kts | 251° |
| 2026-05-03 21:09 | 40.77766 | -73.87553 | 19 ft | 14 kts | 224° |
| 2026-05-03 21:10 | 40.77691 | -73.87623 | 22 ft | 13 kts | 212° |
| 2026-05-03 21:10 | 40.77617 | -73.87684 | 22 ft | 12 kts | 212° |
| 2026-05-03 21:10 | 40.77543 | -73.87746 | 21 ft | 13 kts | 212° |
| 2026-05-03 21:10 | 40.77458 | -73.87816 | 21 ft | 16 kts | 212° |
| 2026-05-03 21:11 | 40.77351 | -73.87905 | 20 ft | 20 kts | 212° |
| 2026-05-03 21:11 | 40.77222 | -73.88009 | 20 ft | 23 kts | 212° |
| 2026-05-03 21:11 | 40.77092 | -73.88116 | 22 ft | 17 kts | 212° |
| 2026-05-03 21:11 | 40.77023 | -73.88183 | 24 ft | 11 kts | 221° |
| 2026-05-03 21:12 | 40.76974 | -73.88243 | 27 ft | 6 kts | 224° |
| 2026-05-03 21:12 | 40.76957 | -73.88266 | 28 ft | 2 kts | 224° |
| 2026-05-03 21:12 | 40.76953 | -73.88271 | 28 ft | 3 kts | 228° |
| 2026-05-03 21:12 | 40.76930 | -73.88328 | 29 ft | 10 kts | 256° |
| 2026-05-03 21:13 | 40.76976 | -73.88364 | 30 ft | 11 kts | 15° |
| 2026-05-03 21:13 | 40.76990 | -73.88355 | 29 ft | 0 kts | 28° |
| 2026-05-03 21:13 | 40.77045 | -73.88311 | 28 ft | 34 kts | 32° |
| 2026-05-03 21:14 | 40.77493 | -73.87946 | 24 ft | 112 kts | 32° |
| 2026-05-03 21:14 | 40.78325 | -73.87262 | 118 ft | 158 kts | 34° |
| 2026-05-03 21:14 | 40.79215 | -73.86427 | 765 ft | 157 kts | 39° |
| 2026-05-03 21:14 | 40.80021 | -73.85427 | 1481 ft | 161 kts | 46° |